Time;durP1;ratioP1;P1;durP2;ratioP2;P2;SDS_P1;SDS_P2;PMS_P1;PMS_P2;Temp;Humidity;BMP_temperature;BMP_pressure;BME280_temperature;BME280_humidity;BME280_pressure;Samples;Min_cycle;Max_cycle;Signal;HPM_P1;HPM_P2
2020/12/02 08:16:10;;;;;;;23.75;12.55;;;;;;;11.53;40.34;100236.78;5089855;27;20693;-72
2020/12/02 08:18:39;;;;;;;25.77;11.70;;;;;;;12.09;38.50;100246.38;5068787;28;20136;-71
2020/12/02 08:21:12;;;;;;;27.73;13.00;;;;;;;13.01;37.07;100253.25;5068298;28;20080;-69
2020/12/02 08:23:40;;;;;;;25.85;12.57;;;;;;;9.80;40.29;100260.03;5070385;28;20080;-67
2020/12/02 08:26:11;;;;;;;24.85;12.73;;;;;;;6.11;47.44;100270.69;5074597;28;20114;-66
2020/12/02 08:28:55;;;;;;;26.10;13.27;;;;;;;5.17;51.48;100283.16;5090537;28;20064;-67
2020/12/02 08:31:26;;;;;;;24.75;12.75;;;;;;;4.82;53.02;100278.69;5047756;28;20068;-68
2020/12/02 08:33:59;;;;;;;41.28;22.50;;;;;;;4.40;53.45;100277.28;5047876;28;20115;-68
2020/12/02 08:36:28;;;;;;;25.85;12.77;;;;;;;4.52;54.81;100281.09;5048356;28;20083;-67
2020/12/02 08:38:55;;;;;;;26.48;13.10;;;;;;;3.92;55.35;100269.75;5047228;28;20067;-67
2020/12/02 08:41:23;;;;;;;25.38;13.00;;;;;;;3.02;56.99;100276.47;5047947;28;20037;-67
2020/12/02 08:44:06;;;;;;;27.88;12.32;;;;;;;2.63;59.06;100280.81;5031334;28;20070;-67
2020/12/02 08:46:43;;;;;;;24.90;12.80;;;;;;;2.26;59.90;100275.06;5047799;28;20053;-67
2020/12/02 08:49:13;;;;;;;26.30;13.02;;;;;;;2.59;59.61;100269.72;5047706;28;20053;-67
2020/12/02 08:51:43;;;;;;;27.58;12.43;;;;;;;2.60;59.06;100284.06;5031072;28;20477;-67
2020/12/02 08:54:13;;;;;;;25.95;12.27;;;;;;;2.42;60.03;100275.78;5047825;28;20072;-67
2020/12/02 08:56:46;;;;;;;24.52;12.23;;;;;;;2.70;59.23;100268.53;5030475;28;20050;-67
2020/12/02 08:59:14;;;;;;;26.85;12.35;;;;;;;4.17;57.97;100260.50;5047249;28;20050;-67
2020/12/02 09:01:43;;;;;;;26.00;12.13;;;;;;;4.39;55.65;100252.84;5047459;28;20106;-68
2020/12/02 09:04:10;;;;;;;24.25;11.48;;;;;;;5.02;54.17;100262.44;5047823;28;20048;-68
2020/12/02 09:06:39;;;;;;;24.13;11.38;;;;;;;5.35;53.31;100260.91;5040854;28;20403;-67
2020/12/02 09:09:06;;;;;;;25.98;12.15;;;;;;;5.27;52.39;100257.31;5057208;28;20044;-67
2020/12/02 09:11:37;;;;;;;24.83;12.10;;;;;;;4.83;53.33;100256.78;5069090;28;20047;-67
2020/12/02 09:14:05;;;;;;;28.52;11.73;;;;;;;5.55;52.41;100250.50;5077544;28;20059;-67
2020/12/02 09:16:33;;;;;;;23.52;12.32;;;;;;;5.98;51.79;100245.84;5089328;28;20048;-67
2020/12/02 09:19:02;;;;;;;21.75;12.20;;;;;;;5.99;50.79;100237.44;5089544;28;20446;-67
2020/12/02 09:21:32;;;;;;;26.02;13.05;;;;;;;6.31;50.28;100241.63;5074300;28;20053;-68
2020/12/02 09:24:03;;;;;;;26.20;13.27;;;;;;;6.21;51.02;100237.19;5069594;28;20059;-68
2020/12/02 09:26:33;;;;;;;25.38;13.77;;;;;;;5.01;51.68;100237.97;5060492;28;20049;-68
2020/12/02 09:29:01;;;;;;;28.40;14.85;;;;;;;5.00;52.62;100233.72;5056015;28;20041;-67
2020/12/02 09:31:29;;;;;;;26.10;13.23;;;;;;;5.50;51.41;100237.72;5055618;28;20127;-67
2020/12/02 09:33:57;;;;;;;26.25;14.10;;;;;;;5.23;51.21;100230.19;5056707;28;20494;-67
2020/12/02 09:36:26;;;;;;;24.48;13.93;;;;;;;5.56;51.48;100235.38;5055843;28;20486;-67
2020/12/02 09:38:55;;;;;;;28.48;14.15;;;;;;;5.55;51.01;100230.25;5055965;28;20141;-69
2020/12/02 09:41:40;;;;;;;25.85;13.32;;;;;;;5.55;50.42;100227.72;5055878;28;20143;-68
2020/12/02 09:44:18;;;;;;;22.77;12.10;;;;;;;4.84;51.41;100238.28;5060306;28;20045;-65
2020/12/02 09:47:17;;;;;;;24.27;12.65;;;;;;;2.69;56.13;100236.56;5122721;27;20379;-63
2020/12/02 09:49:47;;;;;;;26.73;12.65;;;;;;;1.50;59.68;100228.16;5131935;27;20047;-64
2020/12/02 09:52:23;;;;;;;29.05;13.98;;;;;;;1.06;62.41;100234.56;5120943;27;20553;-65
2020/12/02 09:54:52;;;;;;;26.77;12.68;;;;;;;0.76;63.01;100180.44;5120117;28;20405;-65
2020/12/02 09:57:23;;;;;;;31.00;12.80;;;;;;;1.04;63.58;100217.69;5111216;28;20074;-65
2020/12/02 09:59:54;;;;;;;23.92;11.52;;;;;;;1.16;64.26;100206.56;5111282;28;20095;-65
2020/12/02 10:02:33;;;;;;;28.83;11.10;;;;;;;1.39;64.34;100219.28;5115067;28;20087;-65
2020/12/02 10:05:09;;;;;;;23.98;11.13;;;;;;;1.64;64.37;100206.97;5111051;28;20445;-65
2020/12/02 10:07:44;;;;;;;29.27;11.43;;;;;;;1.67;64.13;100177.78;5112889;28;20051;-64
2020/12/02 10:10:23;;;;;;;27.23;12.40;;;;;;;1.48;63.21;100194.53;5111142;28;20044;-64
2020/12/02 10:13:00;;;;;;;31.00;13.53;;;;;;;1.23;63.13;100183.41;5113593;28;20079;-64
2020/12/02 10:15:57;;;;;;;25.98;12.13;;;;;;;1.38;63.81;100182.34;5131526;27;20050;-65
2020/12/02 10:18:36;;;;;;;26.77;11.32;;;;;;;1.30;63.42;100184.53;5131470;27;20131;-65
2020/12/02 10:21:08;;;;;;;24.25;10.85;;;;;;;1.44;63.33;100190.19;5131435;27;20051;-65
2020/12/02 10:23:49;;;;;;;27.48;11.30;;;;;;;1.64;63.47;100176.78;5131400;27;20039;-66
2020/12/02 10:26:24;;;;;;;29.63;11.80;;;;;;;1.75;63.33;100180.63;5131216;27;20054;-65
2020/12/02 10:28:57;;;;;;;26.25;11.38;;;;;;;1.81;63.20;100170.81;5131234;27;20454;-64
2020/12/02 10:31:55;;;;;;;25.65;10.30;;;;;;;2.07;63.13;100160.16;5131211;27;20036;-64
2020/12/02 10:34:29;;;;;;;25.55;10.18;;;;;;;2.18;62.88;100153.91;5129986;28;20051;-64
2020/12/02 10:37:02;;;;;;;22.73;10.02;;;;;;;2.43;62.10;100140.59;5130936;27;20043;-64
2020/12/02 10:39:31;;;;;;;23.60;10.80;;;;;;;2.07;61.49;100162.66;5123067;27;20048;-64
2020/12/02 10:42:07;;;;;;;26.55;10.95;;;;;;;2.09;62.14;100148.47;5125329;28;20039;-64
2020/12/02 10:44:43;;;;;;;32.05;11.10;;;;;;;2.04;61.98;100134.84;5130859;27;20058;-65
2020/12/02 10:47:19;;;;;;;26.92;10.95;;;;;;;2.20;62.25;100141.38;5117457;27;20143;-64
2020/12/02 10:50:11;;;;;;;27.83;10.80;;;;;;;2.04;61.91;100140.75;5103825;28;20040;-67
2020/12/02 10:52:43;;;;;;;24.70;10.45;;;;;;;2.20;62.89;100106.13;5109560;28;20044;-65
2020/12/02 10:55:11;;;;;;;52.78;17.23;;;;;;;2.83;62.32;100132.91;5123224;28;20066;-65
2020/12/02 10:57:40;;;;;;;25.85;10.90;;;;;;;2.15;61.49;100112.63;5113720;27;20043;-65
2020/12/02 11:00:08;;;;;;;27.30;11.10;;;;;;;1.94;61.81;100085.81;5116926;28;20120;-65
2020/12/02 11:02:41;;;;;;;53.85;18.20;;;;;;;2.53;62.99;100115.84;5106997;28;20048;-66
2020/12/02 11:05:38;;;;;;;22.40;10.55;;;;;;;2.32;62.20;100107.47;5098948;28;20052;-64
2020/12/02 11:08:10;;;;;;;23.75;10.23;;;;;;;2.30;61.71;100088.06;5095520;28;20047;-65
2020/12/02 11:10:45;;;;;;;27.35;10.65;;;;;;;2.44;61.62;100102.91;5096377;28;20048;-65
2020/12/02 11:13:19;;;;;;;24.50;10.77;;;;;;;2.68;61.78;100096.28;5095826;28;20046;-67
2020/12/02 11:15:54;;;;;;;20.67;9.57;;;;;;;2.41;61.30;100097.75;5095768;28;20051;-65
2020/12/02 11:18:30;;;;;;;39.55;14.93;;;;;;;2.68;61.49;100093.75;5096497;28;20374;-66
2020/12/02 11:21:01;;;;;;;39.17;15.98;;;;;;;2.94;60.95;100092.16;5096168;28;20074;-65
2020/12/02 11:24:03;;;;;;;22.88;9.80;;;;;;;2.65;60.82;100083.53;5096009;28;20046;-65
2020/12/02 11:26:57;;;;;;;23.23;10.00;;;;;;;2.76;60.98;100075.53;5096027;28;20087;-65
2020/12/02 11:29:28;;;;;;;24.83;10.48;;;;;;;2.75;60.05;100071.28;5095949;28;20070;-64
2020/12/02 11:32:15;;;;;;;21.83;10.43;;;;;;;2.63;60.37;100070.03;5095869;28;20051;-63
2020/12/02 11:35:17;;;;;;;23.92;9.57;;;;;;;2.59;59.56;100063.16;5095843;28;20510;-64
2020/12/02 11:37:52;;;;;;;27.08;10.05;;;;;;;2.66;59.74;100039.06;5095880;28;20455;-65
2020/12/02 11:40:21;;;;;;;22.55;9.82;;;;;;;2.68;59.62;100013.13;5095758;28;20111;-64
2020/12/02 11:42:51;;;;;;;21.80;9.85;;;;;;;3.24;59.41;100052.88;5095718;28;20042;-64
2020/12/02 11:45:20;;;;;;;25.08;11.90;;;;;;;3.26;58.97;100045.38;5095376;28;20054;-64
2020/12/02 11:47:58;;;;;;;21.88;10.13;;;;;;;3.16;58.48;100023.19;5095524;28;20097;-64
2020/12/02 11:50:28;;;;;;;21.85;9.63;;;;;;;3.54;58.64;100035.41;5095678;28;20494;-64
2020/12/02 11:53:06;;;;;;;23.02;10.02;;;;;;;3.80;56.97;100036.22;5095538;28;20044;-64
2020/12/02 11:55:35;;;;;;;22.50;9.50;;;;;;;3.65;57.09;100023.97;5095575;28;20059;-64
2020/12/02 11:58:05;;;;;;;19.90;9.05;;;;;;;4.32;56.81;100018.50;5095370;28;20071;-66
2020/12/02 12:00:33;;;;;;;;;;;;;;;4.75;55.54;100026.50;5095780;28;20126;-64
2020/12/02 12:03:15;;;;;;;19.98;8.52;;;;;;;4.29;55.09;100020.94;5095280;28;19920;-64
2020/12/02 12:05:47;;;;;;;20.92;9.27;;;;;;;4.26;55.39;99988.00;5095225;28;20051;-63
2020/12/02 12:08:20;;;;;;;18.75;9.30;;;;;;;4.54;55.15;100020.81;5094700;28;20076;-65
2020/12/02 12:10:52;;;;;;;18.90;8.77;;;;;;;4.29;55.42;100018.41;5094773;28;20070;-64
2020/12/02 12:13:29;;;;;;;18.73;9.13;;;;;;;3.97;55.53;100015.75;5095349;28;20486;-64
2020/12/02 12:16:00;;;;;;;20.48;9.77;;;;;;;4.03;56.08;100015.09;5095138;28;20114;-64
2020/12/02 12:18:41;;;;;;;22.02;9.80;;;;;;;4.15;55.15;99999.47;5095066;28;20045;-64
2020/12/02 12:21:11;;;;;;;22.08;10.02;;;;;;;4.32;54.38;100013.44;5095055;28;20498;-65
2020/12/02 12:23:52;;;;;;;21.27;10.05;;;;;;;4.23;55.95;100013.16;5094855;28;20059;-64
2020/12/02 12:26:22;;;;;;;21.75;9.55;;;;;;;4.06;57.05;100010.97;5094872;28;20055;-64
2020/12/02 12:28:51;;;;;;;22.52;10.15;;;;;;;3.96;57.44;100008.97;5094564;28;20406;-64
2020/12/02 12:31:22;;;;;;;28.63;12.07;;;;;;;4.28;57.99;100020.06;5094765;28;20509;-64
2020/12/02 12:33:59;;;;;;;30.75;15.48;;;;;;;4.02;57.43;100004.13;5093581;28;20036;-64
2020/12/02 12:36:26;;;;;;;24.60;10.98;;;;;;;4.04;57.85;100011.75;5095064;28;20486;-64
2020/12/02 12:38:57;;;;;;;37.38;15.82;;;;;;;4.13;57.59;99999.38;5094361;28;20079;-64
2020/12/02 12:41:28;;;;;;;35.72;14.70;;;;;;;3.86;57.40;100001.94;5093910;28;20039;-65
2020/12/02 12:44:01;;;;;;;35.30;15.63;;;;;;;3.95;57.63;100007.28;5074186;28;20045;-64
2020/12/02 12:46:34;;;;;;;30.52;12.40;;;;;;;3.90;58.31;100007.94;5073691;28;20053;-64
2020/12/02 12:49:04;;;;;;;25.23;11.43;;;;;;;3.99;58.41;100013.28;5074201;28;20491;-64
2020/12/02 12:51:32;;;;;;;22.38;10.82;;;;;;;3.99;57.71;100004.03;5074434;28;20037;-64
2020/12/02 12:54:03;;;;;;;22.95;10.48;;;;;;;3.87;57.73;100001.13;5074049;28;20471;-65
2020/12/02 12:56:35;;;;;;;22.27;10.68;;;;;;;3.42;58.09;99992.13;5074056;28;20059;-65
2020/12/02 12:59:03;;;;;;;24.58;10.55;;;;;;;3.38;58.60;99980.22;5073976;28;20052;-65
2020/12/02 13:01:31;;;;;;;24.95;10.63;;;;;;;3.51;58.52;99979.78;5074144;28;20122;-64
2020/12/02 13:03:59;;;;;;;22.27;10.35;;;;;;;3.49;57.83;99988.13;5073959;28;20052;-64
2020/12/02 13:06:37;;;;;;;22.75;10.43;;;;;;;3.22;59.00;99977.97;5073799;28;20044;-64
2020/12/02 13:09:12;;;;;;;20.88;9.95;;;;;;;3.23;59.97;99985.63;5073899;28;20037;-64
2020/12/02 13:11:49;;;;;;;25.55;10.63;;;;;;;3.20;61.07;99972.91;5073855;28;20048;-64
2020/12/02 13:14:20;;;;;;;25.85;10.13;;;;;;;3.04;60.46;99962.25;5073827;28;20052;-64
2020/12/02 13:16:54;;;;;;;24.08;10.43;;;;;;;3.00;59.95;99973.06;5073711;28;20838;-64
2020/12/02 13:19:28;;;;;;;24.42;10.40;;;;;;;2.98;60.42;99957.00;5073783;28;20486;-65
2020/12/02 13:21:58;;;;;;;22.35;10.23;;;;;;;2.82;60.55;99944.69;5073521;28;20049;-64
2020/12/02 13:24:32;;;;;;;22.92;10.48;;;;;;;2.84;60.57;99959.06;5073688;28;20045;-65
2020/12/02 13:27:03;;;;;;;23.15;9.55;;;;;;;2.89;60.61;99946.59;5073572;28;20049;-65
2020/12/02 13:29:36;;;;;;;24.33;10.38;;;;;;;2.92;60.99;99957.66;5073594;28;20041;-65
2020/12/02 13:32:10;;;;;;;22.88;9.55;;;;;;;2.78;61.57;99952.97;5073683;28;20041;-65
2020/12/02 13:34:38;;;;;;;22.48;10.15;;;;;;;2.77;61.75;99949.56;5073619;28;20080;-66
2020/12/02 13:37:06;;;;;;;21.70;9.65;;;;;;;2.63;61.45;99949.13;5073693;28;20139;-64
2020/12/02 13:39:35;;;;;;;18.45;8.63;;;;;;;2.59;61.91;99942.22;5073523;28;20041;-64
2020/12/02 13:42:05;;;;;;;21.80;9.65;;;;;;;2.52;61.92;99954.59;5073735;28;20041;-64
2020/12/02 13:44:37;;;;;;;22.85;9.32;;;;;;;2.46;61.82;99950.19;5073537;28;20052;-65
2020/12/02 13:47:09;;;;;;;22.05;9.55;;;;;;;2.04;61.51;99894.09;5071955;28;20471;-64
2020/12/02 13:49:38;;;;;;;22.73;10.30;;;;;;;2.40;61.41;99954.16;5073425;28;20051;-65
2020/12/02 13:52:10;;;;;;;19.92;8.02;;;;;;;2.36;61.81;99938.06;5073696;28;20139;-65
2020/12/02 13:54:46;;;;;;;23.20;10.02;;;;;;;2.04;62.74;99920.91;5073437;28;20052;-66
2020/12/02 13:57:18;;;;;;;19.80;8.82;;;;;;;2.11;63.31;99945.53;5073586;28;20056;-64
2020/12/02 13:59:56;;;;;;;21.17;9.38;;;;;;;2.10;64.21;99937.91;5073719;28;20044;-64
2020/12/02 14:03:12;;;;;;;20.30;9.10;;;;;;;1.89;64.21;99918.72;5073349;28;20048;-64
2020/12/02 14:05:52;;;;;;;22.33;9.32;;;;;;;1.84;65.20;99935.31;5073071;28;20517;-66
2020/12/02 14:08:22;;;;;;;20.92;8.75;;;;;;;1.87;65.35;99929.53;5073583;28;20437;-66
2020/12/02 14:10:51;;;;;;;22.33;9.48;;;;;;;1.60;65.88;99903.31;5073478;28;20102;-64
2020/12/02 14:13:19;;;;;;;20.48;9.60;;;;;;;1.67;65.58;99935.44;5073156;28;20398;-65
2020/12/02 14:15:48;;;;;;;23.05;9.50;;;;;;;1.60;66.21;99933.50;5073162;28;20045;-65
2020/12/02 14:18:17;;;;;;;22.70;8.93;;;;;;;1.53;66.28;99926.50;5073154;28;20044;-66
2020/12/02 14:20:45;;;;;;;23.35;9.57;;;;;;;1.47;66.47;99928.78;5073147;28;20048;-64
2020/12/02 14:23:14;;;;;;;20.67;8.98;;;;;;;1.45;66.33;99931.25;5073058;28;20127;-65
2020/12/02 14:25:42;;;;;;;23.17;9.63;;;;;;;1.43;66.23;99924.44;5073091;28;20044;-65
2020/12/02 14:28:12;;;;;;;21.83;9.18;;;;;;;1.27;66.59;99923.81;5072883;28;20119;-65
2020/12/02 14:30:40;;;;;;;24.35;9.23;;;;;;;1.21;66.54;99923.59;5073112;28;20052;-66
2020/12/02 14:33:11;;;;;;;21.17;9.35;;;;;;;1.11;66.69;99891.34;5075144;28;20115;-65
2020/12/02 14:35:39;;;;;;;16.15;6.90;;;;;;;1.16;66.69;99917.53;5077053;28;20444;-64
2020/12/02 14:38:10;;;;;;;20.15;9.30;;;;;;;1.08;67.11;99911.31;5076693;28;20040;-64
2020/12/02 14:40:38;;;;;;;19.17;7.75;;;;;;;0.84;67.31;99900.28;5076680;28;20041;-64
2020/12/02 14:43:10;;;;;;;20.00;8.93;;;;;;;0.70;67.46;99906.38;5076582;28;20128;-64
2020/12/02 14:45:40;;;;;;;22.33;8.70;;;;;;;0.79;67.59;99908.44;5076380;28;20044;-64
2020/12/02 14:48:08;;;;;;;23.40;9.30;;;;;;;0.50;67.72;99841.94;5076449;28;20043;-65
2020/12/02 14:50:39;;;;;;;22.13;9.00;;;;;;;0.65;67.62;99897.81;5076472;28;20048;-65
2020/12/02 14:53:09;;;;;;;21.52;9.48;;;;;;;0.64;68.02;99911.16;5076491;28;20123;-65
2020/12/02 14:55:37;;;;;;;19.80;9.18;;;;;;;0.71;68.35;99908.13;5076381;28;20110;-66
2020/12/02 14:58:10;;;;;;;22.60;9.45;;;;;;;0.67;68.51;99906.28;5076355;28;20169;-66
2020/12/02 15:00:44;;;;;;;18.92;8.18;;;;;;;0.54;68.79;99888.97;5076427;28;20489;-64
2020/12/02 15:03:12;;;;;;;19.65;8.77;;;;;;;0.60;68.81;99909.34;5076612;28;20044;-65
2020/12/02 15:05:39;;;;;;;17.33;8.38;;;;;;;0.62;68.76;99902.72;5076225;28;20040;-66
2020/12/02 15:08:19;;;;;;;21.15;8.15;;;;;;;0.45;68.20;99858.47;5076130;28;20041;-64
2020/12/02 15:10:47;;;;;;;17.65;8.00;;;;;;;0.64;68.15;99891.06;5076188;28;20048;-65
2020/12/02 15:13:16;;;;;;;25.23;9.45;;;;;;;0.60;68.32;99891.75;5074884;28;20068;-66
2020/12/02 15:15:45;;;;;;;23.45;9.70;;;;;;;0.49;68.18;99885.41;5074893;28;20465;-66
2020/12/02 15:18:13;;;;;;;22.15;9.90;;;;;;;0.56;68.16;99884.88;5076005;28;20045;-66
2020/12/02 15:20:44;;;;;;;24.13;9.75;;;;;;;0.72;68.21;99893.91;5075961;28;20052;-65
2020/12/02 15:23:13;;;;;;;22.77;10.25;;;;;;;0.70;68.69;99913.91;5075976;28;20049;-64
2020/12/02 15:25:41;;;;;;;20.38;9.10;;;;;;;0.70;68.59;99921.44;5075898;28;20065;-64
2020/12/02 15:28:09;;;;;;;23.52;9.50;;;;;;;0.45;68.54;99893.63;5075736;28;20066;-65
2020/12/02 15:30:45;;;;;;;23.60;10.25;;;;;;;0.41;69.40;99916.84;5075867;28;20056;-64
2020/12/02 15:33:16;;;;;;;23.42;9.52;;;;;;;0.35;69.77;99921.63;5075673;28;20044;-65
2020/12/02 15:35:52;;;;;;;26.13;10.48;;;;;;;0.17;69.88;99921.66;5075696;28;20044;-66
2020/12/02 15:38:19;;;;;;;23.05;10.07;;;;;;;0.10;70.23;99901.28;5075701;28;20041;-64
2020/12/02 15:40:50;;;;;;;23.17;10.18;;;;;;;0.27;70.46;99912.88;5075613;28;20454;-64
2020/12/02 15:43:31;;;;;;;25.95;9.40;;;;;;;0.28;70.30;99909.59;5075446;28;20448;-64
2020/12/02 15:46:07;;;;;;;19.03;8.03;;;;;;;0.14;70.37;99906.50;5075074;28;20059;-65
2020/12/02 15:48:35;;;;;;;27.67;10.50;;;;;;;0.18;70.29;99917.50;5075506;28;20052;-64
2020/12/02 15:51:06;;;;;;;28.42;12.05;;;;;;;0.27;70.00;99927.94;5077635;28;20066;-70
2020/12/02 15:53:42;;;;;;;26.48;12.50;;;;;;;0.19;69.72;99919.25;5078665;28;20040;-65
2020/12/02 15:56:16;;;;;;;30.13;12.45;;;;;;;0.20;69.66;99913.41;5075308;28;20051;-66
2020/12/02 15:58:55;;;;;;;30.27;12.95;;;;;;;0.31;69.47;99912.25;5075279;28;20045;-66
2020/12/02 16:01:26;;;;;;;27.05;12.45;;;;;;;0.13;69.59;99893.88;5075257;28;20047;-64
2020/12/02 16:03:58;;;;;;;;;;;;;;;0.14;69.57;99910.66;5075559;28;20054;-65
2020/12/02 16:06:26;;;;;;;34.25;14.30;;;;;;;0.08;69.28;99902.84;5075086;28;19969;-66
2020/12/02 16:08:54;;;;;;;31.63;13.57;;;;;;;-0.09;69.91;99887.91;5074854;28;20048;-65
2020/12/02 16:11:23;;;;;;;31.80;13.55;;;;;;;-0.02;69.93;99904.94;5074884;28;20041;-64
2020/12/02 16:13:51;;;;;;;30.45;13.85;;;;;;;-0.20;70.17;99901.63;5073670;28;20052;-64
2020/12/02 16:16:20;;;;;;;35.97;14.77;;;;;;;-0.17;70.19;99899.25;5074882;28;20049;-67
2020/12/02 16:18:49;;;;;;;30.27;14.35;;;;;;;-0.16;70.01;99890.94;5074780;28;20040;-64
2020/12/02 16:21:18;;;;;;;38.55;15.35;;;;;;;-0.17;70.20;99899.25;5075013;28;20511;-65
2020/12/02 16:23:47;;;;;;;28.88;12.10;;;;;;;-0.25;70.28;99905.59;5074783;28;20043;-65
2020/12/02 16:26:15;;;;;;;36.05;15.98;;;;;;;-0.43;70.50;99903.88;5073385;28;20089;-64
2020/12/02 16:28:43;;;;;;;34.15;14.10;;;;;;;-0.67;70.41;99913.59;5073697;28;20189;-64
2020/12/02 16:31:14;;;;;;;38.50;14.68;;;;;;;-0.82;70.62;99906.25;5074521;28;20044;-64
2020/12/02 16:33:46;;;;;;;36.42;14.57;;;;;;;-0.81;71.25;99919.63;5074516;28;20453;-65
2020/12/02 16:36:16;;;;;;;32.00;13.90;;;;;;;-1.02;71.37;99921.97;5074466;28;20048;-64
2020/12/02 16:38:46;;;;;;;32.50;13.57;;;;;;;-0.95;71.80;99915.59;5074430;28;20038;-64
2020/12/02 16:41:19;;;;;;;35.33;14.63;;;;;;;-1.05;72.04;99913.44;5073163;28;20494;-64
2020/12/02 16:43:53;;;;;;;34.50;15.55;;;;;;;-0.95;72.32;99910.59;5074362;28;20044;-65
2020/12/02 16:46:22;;;;;;;36.38;15.38;;;;;;;-0.92;72.60;99905.72;5074161;28;20106;-64
2020/12/02 16:49:02;;;;;;;31.73;14.60;;;;;;;-0.86;72.06;99911.03;5074280;28;20504;-64
2020/12/02 16:51:43;;;;;;;38.15;16.67;;;;;;;-0.87;72.20;99906.81;5074118;28;20045;-65
2020/12/02 16:54:15;;;;;;;30.30;15.18;;;;;;;-0.95;72.03;99885.53;5074230;28;20127;-66
2020/12/02 16:57:01;;;;;;;34.72;13.77;;;;;;;-0.92;72.29;99901.59;5073904;28;20044;-64
2020/12/02 16:59:30;;;;;;;32.38;14.63;;;;;;;-0.90;72.20;99894.13;5072944;28;20060;-65
2020/12/02 17:01:58;;;;;;;39.05;17.25;;;;;;;-0.93;71.97;99884.81;5073929;28;20392;-64
2020/12/02 17:04:28;;;;;;;31.10;15.48;;;;;;;-0.98;72.29;99876.22;5073981;28;20059;-64
2020/12/02 17:06:58;;;;;;;36.00;17.08;;;;;;;-1.06;72.28;99872.53;5073874;28;20089;-64
2020/12/02 17:09:25;;;;;;;35.10;15.07;;;;;;;-1.12;72.05;99872.22;5073925;28;20052;-64
2020/12/02 17:12:04;;;;;;;53.28;22.67;;;;;;;-1.00;72.49;99872.81;5073828;28;20124;-65
2020/12/02 17:14:41;;;;;;;40.90;18.73;;;;;;;-0.92;72.08;99871.53;5073876;28;20045;-66
2020/12/02 17:17:12;;;;;;;38.08;19.20;;;;;;;-1.08;71.78;99873.25;5073800;28;20051;-64
2020/12/02 17:19:48;;;;;;;48.70;23.80;;;;;;;-0.99;72.06;99878.69;5073809;28;20430;-64
2020/12/02 17:22:26;;;;;;;61.30;28.63;;;;;;;-1.18;72.31;99871.94;5073858;28;20055;-64
2020/12/02 17:25:03;;;;;;;61.08;27.73;;;;;;;-1.00;72.02;99876.94;5073766;28;20071;-65
2020/12/02 17:27:39;;;;;;;71.57;29.70;;;;;;;-0.94;72.42;99872.25;5073657;28;20044;-65
2020/12/02 17:30:14;;;;;;;67.63;31.80;;;;;;;-1.10;72.09;99879.78;5073710;28;20498;-64
2020/12/02 17:32:46;;;;;;;70.43;29.58;;;;;;;-1.18;71.96;99876.06;5073589;28;20063;-65
2020/12/02 17:35:24;;;;;;;62.22;28.38;;;;;;;-1.14;72.37;99867.91;5073655;28;20051;-65
2020/12/02 17:38:00;;;;;;;62.85;28.60;;;;;;;-1.20;72.29;99862.63;5073588;28;20453;-65
2020/12/02 17:40:31;;;;;;;53.03;26.55;;;;;;;-1.30;72.30;99863.84;5073589;28;20071;-65
2020/12/02 17:43:07;;;;;;;58.40;28.55;;;;;;;-1.63;71.58;99855.50;5073544;28;20044;-64
2020/12/02 17:45:36;;;;;;;53.53;29.27;;;;;;;-1.52;72.38;99849.41;5072286;28;20398;-64
2020/12/02 17:48:11;;;;;;;61.17;28.67;;;;;;;-1.27;72.90;99858.94;5073451;28;20045;-65
2020/12/02 17:50:44;;;;;;;46.55;25.40;;;;;;;-1.38;72.46;99847.56;5073470;28;20273;-64
2020/12/02 17:53:14;;;;;;;55.47;26.90;;;;;;;-1.47;72.12;99855.50;5073504;28;20048;-64
2020/12/02 17:55:44;;;;;;;58.42;26.52;;;;;;;-1.39;72.42;99849.22;5073381;28;20123;-64
2020/12/02 17:58:18;;;;;;;84.75;32.65;;;;;;;-1.34;72.39;99864.44;5073430;28;20048;-65
2020/12/02 18:00:48;;;;;;;97.72;37.15;;;;;;;-1.41;72.39;99863.28;5073331;28;20045;-64
2020/12/02 18:03:17;;;;;;;;;;;;;;;-1.60;72.40;99870.69;5073702;28;20051;-64
2020/12/02 18:05:53;;;;;;;71.40;28.73;;;;;;;-1.54;72.45;99868.50;5073286;28;19920;-64
2020/12/02 18:08:31;;;;;;;50.75;22.42;;;;;;;-1.67;72.28;99868.66;5075863;28;20048;-65
2020/12/02 18:11:10;;;;;;;55.73;23.97;;;;;;;-1.66;72.73;99869.53;5077279;28;20403;-64
2020/12/02 18:13:44;;;;;;;48.65;22.73;;;;;;;-1.65;72.91;99849.56;5059474;28;20045;-64
2020/12/02 18:16:14;;;;;;;43.83;21.75;;;;;;;-1.85;72.46;99846.88;5077173;28;20049;-64
2020/12/02 18:18:51;;;;;;;66.55;27.48;;;;;;;-1.67;73.08;99856.16;5077057;28;20033;-65
2020/12/02 18:21:28;;;;;;;52.33;24.45;;;;;;;-1.79;72.91;99843.03;5077150;28;20464;-64
2020/12/02 18:24:06;;;;;;;57.08;24.60;;;;;;;-1.71;73.47;99839.28;5077086;28;20102;-64
2020/12/02 18:26:42;;;;;;;49.40;22.75;;;;;;;-1.64;73.24;99843.81;5077040;28;20055;-64
2020/12/02 18:29:15;;;;;;;50.35;22.88;;;;;;;-1.57;73.59;99845.81;5076891;28;20090;-64
2020/12/02 18:31:47;;;;;;;46.88;21.17;;;;;;;-1.67;73.58;99848.63;5076921;28;20044;-65
2020/12/02 18:34:26;;;;;;;43.58;19.63;;;;;;;-1.74;73.43;99844.13;5076883;28;20087;-64
2020/12/02 18:37:16;;;;;;;50.65;24.38;;;;;;;-1.50;73.63;99851.97;5075675;28;20542;-65
2020/12/02 18:39:54;;;;;;;47.20;22.50;;;;;;;-1.47;73.63;99848.00;5076835;28;20048;-64
2020/12/02 18:42:42;;;;;;;48.80;22.90;;;;;;;-1.50;73.88;99852.84;5076609;28;20044;-65
2020/12/02 18:45:11;;;;;;;43.50;21.23;;;;;;;-1.51;73.68;99856.13;5076433;28;20051;-67
2020/12/02 18:47:39;;;;;;;40.58;19.83;;;;;;;-1.67;73.59;99858.66;5076863;28;20076;-65
2020/12/02 18:50:09;;;;;;;41.03;18.70;;;;;;;-1.75;73.76;99859.88;5076514;28;20513;-66
2020/12/02 18:52:46;;;;;;;40.60;17.50;;;;;;;-1.86;74.39;99857.63;5076533;28;20494;-65
2020/12/02 18:55:15;;;;;;;36.88;17.13;;;;;;;-1.63;74.66;99858.00;5058294;28;20037;-64
2020/12/02 18:57:43;;;;;;;37.40;15.67;;;;;;;-1.62;74.52;99846.38;5076382;28;20432;-65
2020/12/02 19:00:12;;;;;;;33.63;15.10;;;;;;;-1.59;74.59;99857.41;5076337;28;20056;-64
2020/12/02 19:02:45;;;;;;;36.53;15.77;;;;;;;-1.75;74.59;99864.91;5076327;28;20071;-65
2020/12/02 19:05:15;;;;;;;41.10;16.92;;;;;;;-1.59;74.29;99861.53;5076289;28;20056;-65
2020/12/02 19:07:46;;;;;;;35.53;16.05;;;;;;;-1.61;74.34;99846.44;5076089;28;20044;-64
2020/12/02 19:10:14;;;;;;;40.40;17.48;;;;;;;-1.57;74.37;99854.97;5074994;28;20044;-64
2020/12/02 19:12:42;;;;;;;47.63;18.00;;;;;;;-1.42;74.62;99861.56;5076562;28;20127;-64
2020/12/02 19:15:24;;;;;;;38.03;17.27;;;;;;;-1.56;74.45;99856.69;5076061;28;20068;-64
2020/12/02 19:18:03;;;;;;;41.90;18.73;;;;;;;-1.52;74.57;99844.41;5075574;28;20049;-64
2020/12/02 19:20:36;;;;;;;45.67;18.42;;;;;;;-1.46;74.31;99828.81;5076346;28;20052;-66
2020/12/02 19:23:16;;;;;;;37.60;17.98;;;;;;;-1.64;74.21;99823.78;5075944;28;20045;-66
2020/12/02 19:25:48;;;;;;;41.70;18.35;;;;;;;-1.79;74.16;99824.66;5075960;28;20529;-65
2020/12/02 19:28:27;;;;;;;42.53;19.42;;;;;;;-1.74;75.21;99806.59;5075861;28;20055;-64
2020/12/02 19:31:02;;;;;;;31.98;14.90;;;;;;;-1.50;74.79;99830.31;5075866;28;20044;-65
2020/12/02 19:33:41;;;;;;;47.75;20.67;;;;;;;-1.44;74.79;99844.78;5076193;28;20044;-65
2020/12/02 19:36:15;;;;;;;53.67;23.52;;;;;;;-1.60;75.29;99835.66;5078387;28;20110;-67
2020/12/02 19:38:51;;;;;;;49.33;21.63;;;;;;;-1.49;74.91;99842.03;5076808;28;20051;-64
2020/12/02 19:41:25;;;;;;;56.15;25.67;;;;;;;-1.56;74.42;99852.53;5075660;28;20414;-64
2020/12/02 19:43:58;;;;;;;49.80;22.75;;;;;;;-1.57;75.16;99829.94;5075571;28;20049;-64
2020/12/02 19:46:31;;;;;;;54.42;22.73;;;;;;;-1.60;74.96;99845.66;5075422;28;20067;-64
2020/12/02 19:48:58;;;;;;;56.85;24.77;;;;;;;-1.66;74.72;99842.88;5075427;28;20434;-64
2020/12/02 19:51:28;;;;;;;57.35;24.65;;;;;;;-1.54;74.99;99845.97;5075407;28;20041;-65
2020/12/02 19:53:56;;;;;;;;;;;;;;;-1.53;74.91;99844.31;5075791;28;20053;-66
2020/12/02 19:56:26;;;;;;;56.97;24.27;;;;;;;-1.71;75.25;99849.28;5075588;28;19924;-65
2020/12/02 19:59:05;;;;;;;60.63;23.95;;;;;;;-1.67;75.12;99833.63;5075210;28;20110;-65
2020/12/02 20:01:41;;;;;;;62.05;26.83;;;;;;;-1.54;75.31;99830.97;5074046;28;20048;-64
2020/12/02 20:04:14;;;;;;;59.63;25.33;;;;;;;-1.55;75.49;99836.75;5075148;28;20529;-64